Time;durP1;ratioP1;P1;durP2;ratioP2;P2;SDS_P1;SDS_P2;PMS_P1;PMS_P2;Temp;Humidity;BMP_temperature;BMP_pressure;BME280_temperature;BME280_humidity;BME280_pressure;Samples;Min_cycle;Max_cycle;Signal;HPM_P1;HPM_P2
2023/04/06 00:00:54;;;;;;;35.72;15.65;;;;;;;3.39;100.00;101509.16;4940234;29;20058;-78
2023/04/06 00:03:20;;;;;;;32.00;14.65;;;;;;;3.28;100.00;101508.69;4912981;29;20049;-78
2023/04/06 00:05:47;;;;;;;31.88;15.38;;;;;;;3.34;100.00;101507.59;4938625;29;20032;-78
2023/04/06 00:08:13;;;;;;;35.97;15.88;;;;;;;3.37;100.00;101507.47;4923915;29;20035;-78
2023/04/06 00:10:38;;;;;;;37.30;15.23;;;;;;;3.18;100.00;101507.28;4939545;29;20177;-78
2023/04/06 00:13:05;;;;;;;40.33;16.27;;;;;;;3.27;100.00;101504.25;4942524;29;20102;-78
2023/04/06 00:15:31;;;;;;;38.78;15.27;;;;;;;3.27;100.00;101494.28;4958515;29;20043;-78
2023/04/06 00:17:56;;;;;;;33.15;15.70;;;;;;;3.35;100.00;101502.13;4922085;29;20114;-78
2023/04/06 00:20:22;;;;;;;37.85;15.75;;;;;;;3.21;100.00;101508.06;4922373;29;20039;-78
2023/04/06 00:22:48;;;;;;;37.33;15.52;;;;;;;3.09;100.00;101495.88;4952240;29;20036;-78
2023/04/06 00:25:15;;;;;;;33.17;15.57;;;;;;;3.17;100.00;101501.00;4936485;29;20504;-78
2023/04/06 00:27:40;;;;;;;31.40;15.65;;;;;;;3.19;100.00;101491.00;4941239;29;20483;-78
2023/04/06 00:30:07;;;;;;;29.75;14.70;;;;;;;3.25;100.00;101498.91;4940925;29;20067;-78
2023/04/06 00:32:32;;;;;;;33.28;15.15;;;;;;;3.29;100.00;101494.25;4957074;29;20422;-78
2023/04/06 00:34:58;;;;;;;38.08;16.17;;;;;;;3.36;100.00;101487.66;4949591;29;20047;-78
2023/04/06 00:37:24;;;;;;;33.20;14.63;;;;;;;3.07;100.00;101478.81;4955067;29;20042;-78
2023/04/06 00:39:51;;;;;;;34.70;14.77;;;;;;;2.93;100.00;101483.88;4954553;28;20047;-78
2023/04/06 00:42:24;;;;;;;33.35;14.38;;;;;;;2.97;100.00;101468.41;4942760;29;20384;-78
2023/04/06 00:44:51;;;;;;;27.90;12.93;;;;;;;2.91;100.00;101481.22;4937868;29;20047;-77
2023/04/06 00:47:17;;;;;;;30.38;14.00;;;;;;;2.82;100.00;101468.06;4932456;29;21493;-78
2023/04/06 00:49:42;;;;;;;34.28;15.13;;;;;;;2.82;100.00;101470.75;4923662;29;20516;-77
2023/04/06 00:52:08;;;;;;;36.08;15.50;;;;;;;2.75;100.00;101462.00;4921629;29;20066;-77
2023/04/06 00:54:33;;;;;;;30.52;14.38;;;;;;;2.69;100.00;101464.91;4921833;29;20155;-77
2023/04/06 00:56:59;;;;;;;35.25;15.05;;;;;;;2.72;100.00;101464.81;4911750;29;20054;-77
2023/04/06 00:59:26;;;;;;;34.65;13.93;;;;;;;2.65;100.00;101457.84;4928143;29;20121;-77
2023/04/06 01:01:51;;;;;;;30.50;15.18;;;;;;;2.61;100.00;101455.28;4957661;29;20063;-78
2023/04/06 01:04:17;;;;;;;31.27;14.57;;;;;;;2.60;100.00;101454.44;4890509;29;20035;-78
2023/04/06 01:06:42;;;;;;;31.02;14.55;;;;;;;2.63;100.00;101454.31;4922214;29;20044;-78
2023/04/06 01:09:08;;;;;;;30.85;14.10;;;;;;;2.66;100.00;101450.63;4948459;29;20125;-78
2023/04/06 01:11:33;;;;;;;29.02;15.02;;;;;;;2.72;100.00;101435.06;4943399;29;20106;-78
2023/04/06 01:13:59;;;;;;;36.65;15.55;;;;;;;2.64;100.00;101444.38;4926139;29;20046;-78
2023/04/06 01:16:24;;;;;;;33.45;15.95;;;;;;;2.72;100.00;101445.88;4914359;29;20031;-78
2023/04/06 01:18:50;;;;;;;35.40;15.00;;;;;;;2.74;100.00;101433.19;4935866;29;20067;-79
2023/04/06 01:21:16;;;;;;;32.97;15.38;;;;;;;2.82;100.00;101432.91;4940257;29;20418;-79
2023/04/06 01:23:45;;;;;;;30.60;15.07;;;;;;;2.87;100.00;101438.09;4909348;29;20024;-78
2023/04/06 01:26:14;;;;;;;32.53;15.52;;;;;;;2.55;100.00;101411.34;4952984;29;20119;-78
2023/04/06 01:28:39;;;;;;;36.28;15.93;;;;;;;2.65;100.00;101429.94;4947888;29;20053;-78
2023/04/06 01:31:08;;;;;;;35.05;16.48;;;;;;;2.58;100.00;101424.75;4940265;29;20035;-78
2023/04/06 01:33:34;;;;;;;32.58;15.93;;;;;;;2.65;100.00;101435.34;4950014;29;20121;-79
2023/04/06 01:36:00;;;;;;;29.83;15.07;;;;;;;2.68;100.00;101429.81;4940348;29;20039;-78
2023/04/06 01:38:26;;;;;;;31.52;15.38;;;;;;;2.60;100.00;101432.81;4914885;29;20099;-78
2023/04/06 01:40:52;;;;;;;32.63;16.10;;;;;;;2.56;100.00;101431.16;4940641;29;20089;-78
2023/04/06 01:43:18;;;;;;;33.30;16.02;;;;;;;2.41;100.00;101423.59;4942868;29;20521;-78
2023/04/06 01:45:43;;;;;;;37.67;15.60;;;;;;;2.40;100.00;101425.41;4920714;29;20122;-78
2023/04/06 01:48:09;;;;;;;37.65;15.32;;;;;;;2.32;100.00;101414.88;4930895;29;20058;-78
2023/04/06 01:50:35;;;;;;;35.13;16.35;;;;;;;2.26;100.00;101415.09;4937613;29;20047;-78
2023/04/06 01:53:00;;;;;;;30.35;14.70;;;;;;;2.20;100.00;101405.41;4919841;29;20051;-78
2023/04/06 01:55:26;;;;;;;37.88;15.90;;;;;;;2.39;100.00;101415.53;4945212;29;20514;-78
2023/04/06 01:57:51;;;;;;;34.75;15.50;;;;;;;2.37;100.00;101414.72;4927656;29;20090;-78
2023/04/06 02:00:17;;;;;;;31.00;14.40;;;;;;;2.36;100.00;101410.25;4919843;29;20187;-78
2023/04/06 02:02:42;;;;;;;36.10;14.98;;;;;;;2.45;100.00;101411.75;4905328;29;20078;-78
2023/04/06 02:05:08;;;;;;;31.90;14.73;;;;;;;2.31;100.00;101390.63;4904120;29;20470;-78
2023/04/06 02:07:34;;;;;;;34.22;13.95;;;;;;;2.44;100.00;101402.75;4940388;29;20035;-78
2023/04/06 02:09:59;;;;;;;31.25;14.23;;;;;;;2.31;100.00;101391.53;4954705;28;20039;-78
2023/04/06 02:12:25;;;;;;;38.65;16.08;;;;;;;2.30;100.00;101394.28;4924489;29;20408;-78
2023/04/06 02:14:51;;;;;;;32.47;15.00;;;;;;;2.30;100.00;101383.47;4953492;29;20042;-78
2023/04/06 02:17:16;;;;;;;32.15;14.40;;;;;;;2.35;100.00;101401.25;4937199;29;20035;-78
2023/04/06 02:19:42;;;;;;;32.10;15.27;;;;;;;2.47;100.00;101391.81;4953304;29;20106;-78
2023/04/06 02:22:07;;;;;;;36.50;15.15;;;;;;;2.38;100.00;101382.25;4952983;29;20039;-77
2023/04/06 02:24:33;;;;;;;44.33;15.55;;;;;;;2.36;100.00;101386.81;4932764;29;20484;-78
2023/04/06 02:26:58;;;;;;;30.83;14.85;;;;;;;2.38;100.00;101384.94;4925998;29;20168;-78
2023/04/06 02:29:24;;;;;;;32.35;14.25;;;;;;;2.15;100.00;101374.09;4937773;29;20066;-78
2023/04/06 02:31:49;;;;;;;30.33;14.30;;;;;;;2.15;100.00;101371.41;4930453;29;20047;-78
2023/04/06 02:34:17;;;;;;;29.60;14.40;;;;;;;2.27;100.00;101370.94;4929776;29;20380;-78
2023/04/06 02:36:46;;;;;;;34.63;15.13;;;;;;;2.14;100.00;101373.19;4917920;29;20031;-78
2023/04/06 02:39:13;;;;;;;30.30;14.18;;;;;;;2.23;100.00;101374.69;4919665;29;20388;-78
2023/04/06 02:41:38;;;;;;;27.95;15.25;;;;;;;2.35;100.00;101378.78;4912455;29;20119;-78
2023/04/06 02:44:08;;;;;;;35.40;16.23;;;;;;;2.44;100.00;101373.00;4936077;29;20118;-78
2023/04/06 02:46:34;;;;;;;42.25;15.88;;;;;;;2.63;100.00;101372.34;4926603;29;20039;-78
2023/04/06 02:49:00;;;;;;;31.08;14.85;;;;;;;2.70;100.00;101368.47;4938197;29;20456;-79
2023/04/06 02:51:26;;;;;;;39.83;15.05;;;;;;;2.81;100.00;101362.66;4936337;29;20506;-78
2023/04/06 02:53:52;;;;;;;35.35;15.93;;;;;;;2.70;100.00;101360.34;4905067;29;20495;-78
2023/04/06 02:56:18;;;;;;;35.38;14.98;;;;;;;2.53;100.00;101351.06;4935128;29;20084;-78
2023/04/06 02:58:43;;;;;;;47.90;16.42;;;;;;;2.61;100.00;101358.88;4934464;29;20057;-78
2023/04/06 03:01:09;;;;;;;43.67;17.70;;;;;;;2.71;100.00;101356.72;4922847;29;20043;-78
2023/04/06 03:03:34;;;;;;;33.13;15.88;;;;;;;2.77;100.00;101342.94;4935296;29;20070;-78
2023/04/06 03:06:00;;;;;;;35.95;15.82;;;;;;;2.79;100.00;101345.59;4932193;29;20099;-78
2023/04/06 03:08:28;;;;;;;40.13;16.27;;;;;;;2.72;100.00;101345.84;4925013;29;20066;-79
2023/04/06 03:10:54;;;;;;;40.92;18.23;;;;;;;2.77;100.00;101351.03;4925368;29;20035;-78
2023/04/06 03:13:20;;;;;;;37.75;16.33;;;;;;;2.82;100.00;101353.56;4918855;29;20043;-78
2023/04/06 03:15:46;;;;;;;29.17;13.55;;;;;;;2.62;100.00;101338.13;4936990;29;20042;-78
2023/04/06 03:18:11;;;;;;;45.00;17.65;;;;;;;2.67;100.00;101347.84;4948101;29;20047;-79
2023/04/06 03:20:37;;;;;;;41.47;17.60;;;;;;;2.75;100.00;101351.13;4926302;29;20452;-78
2023/04/06 03:23:02;;;;;;;44.90;17.80;;;;;;;2.80;100.00;101344.66;4914211;29;20077;-78
2023/04/06 03:25:29;;;;;;;36.20;17.08;;;;;;;2.92;100.00;101333.38;4936734;29;20039;-78
2023/04/06 03:27:55;;;;;;;42.95;17.48;;;;;;;3.04;100.00;101346.38;4935070;29;20046;-78
2023/04/06 03:30:21;;;;;;;40.22;17.70;;;;;;;2.93;100.00;101318.88;4930336;29;20047;-78
2023/04/06 03:32:46;;;;;;;38.70;17.48;;;;;;;3.06;100.00;101333.69;4945279;29;20043;-79
2023/04/06 03:35:12;;;;;;;38.97;17.80;;;;;;;3.05;100.00;101333.75;4925714;29;20507;-79
2023/04/06 03:37:37;;;;;;;42.70;18.50;;;;;;;3.08;100.00;101333.63;4933939;29;20052;-78
2023/04/06 03:40:04;;;;;;;40.65;19.02;;;;;;;3.14;100.00;101330.69;4903276;29;20035;-78
2023/04/06 03:42:30;;;;;;;46.33;19.52;;;;;;;3.22;100.00;101335.78;4916754;29;20051;-79
2023/04/06 03:44:56;;;;;;;52.17;19.10;;;;;;;3.26;100.00;101330.19;4953650;29;20431;-79
2023/04/06 03:47:22;;;;;;;43.85;19.45;;;;;;;3.29;100.00;101334.56;4932074;29;20036;-79
2023/04/06 03:49:47;;;;;;;41.60;18.65;;;;;;;3.36;100.00;101329.78;4921554;29;20039;-79
2023/04/06 03:52:13;;;;;;;41.22;19.08;;;;;;;3.36;100.00;101325.28;4919665;29;20039;-79
2023/04/06 03:54:38;;;;;;;46.35;20.73;;;;;;;3.38;100.00;101323.38;4934017;29;20038;-78
2023/04/06 03:57:04;;;;;;;51.42;20.67;;;;;;;3.46;100.00;101318.53;4926198;29;20043;-78
2023/04/06 03:59:29;;;;;;;45.20;19.20;;;;;;;3.45;100.00;101326.72;4919344;29;20047;-78
2023/04/06 04:01:55;;;;;;;43.38;19.10;;;;;;;3.48;100.00;101322.03;4913543;29;20098;-78
2023/04/06 04:04:21;;;;;;;43.80;19.35;;;;;;;3.51;100.00;101323.75;4936707;29;20060;-78
2023/04/06 04:06:46;;;;;;;42.08;19.63;;;;;;;3.52;100.00;101325.50;4937531;29;20042;-79
2023/04/06 04:09:12;;;;;;;43.58;18.80;;;;;;;3.53;100.00;101318.28;4931997;29;20045;-78
2023/04/06 04:11:37;;;;;;;43.88;19.45;;;;;;;3.46;100.00;101296.88;4931352;29;20047;-79
2023/04/06 04:14:03;;;;;;;48.33;20.05;;;;;;;3.68;100.00;101323.03;4953481;28;20036;-79
2023/04/06 04:16:28;;;;;;;44.17;20.50;;;;;;;3.64;100.00;101314.16;4938912;29;20043;-79
2023/04/06 04:18:54;;;;;;;42.30;21.20;;;;;;;3.72;100.00;101315.66;4923180;29;20114;-79
2023/04/06 04:21:19;;;;;;;45.08;19.65;;;;;;;3.61;100.00;101311.56;4939926;29;20051;-79
2023/04/06 04:23:45;;;;;;;52.75;20.48;;;;;;;3.73;100.00;101321.00;4912908;29;20053;-79
2023/04/06 04:26:11;;;;;;;48.72;19.70;;;;;;;3.76;100.00;101322.69;4930532;29;20506;-80
2023/04/06 04:28:36;;;;;;;46.05;20.20;;;;;;;3.79;100.00;101328.88;4942010;29;20414;-79
2023/04/06 04:31:02;;;;;;;55.95;21.13;;;;;;;3.75;100.00;101329.94;4924299;29;20122;-78
2023/04/06 04:33:27;;;;;;;49.92;21.65;;;;;;;3.64;100.00;101335.81;4921470;29;20137;-77
2023/04/06 04:35:53;;;;;;;44.40;20.75;;;;;;;3.54;100.00;101336.25;4939272;29;20031;-78
2023/04/06 04:38:18;;;;;;;41.35;20.88;;;;;;;3.54;100.00;101341.69;4931890;29;20043;-78
2023/04/06 04:40:44;;;;;;;45.78;21.17;;;;;;;3.53;100.00;101337.22;4935223;29;20126;-79
2023/04/06 04:43:09;;;;;;;46.28;21.00;;;;;;;3.52;100.00;101330.03;4938776;29;20122;-79
2023/04/06 04:45:35;;;;;;;57.83;22.17;;;;;;;3.69;100.00;101330.22;4934806;29;20043;-78
2023/04/06 04:48:00;;;;;;;51.65;22.05;;;;;;;3.75;100.00;101331.75;4941071;29;20047;-80
2023/04/06 04:50:26;;;;;;;47.10;20.92;;;;;;;3.73;100.00;101323.69;4906025;29;20415;-79
2023/04/06 04:52:51;;;;;;;51.00;21.77;;;;;;;3.77;100.00;101325.34;4923636;29;20530;-79
2023/04/06 04:55:17;;;;;;;47.15;22.30;;;;;;;3.80;100.00;101329.72;4956422;29;20162;-78
2023/04/06 04:57:43;;;;;;;47.72;21.30;;;;;;;3.80;100.00;101318.91;4933995;29;20039;-78
2023/04/06 05:00:09;;;;;;;53.42;22.58;;;;;;;3.68;100.00;101306.78;4939330;29;20509;-77
2023/04/06 05:02:34;;;;;;;55.33;21.70;;;;;;;3.77;100.00;101319.94;4940407;29;20059;-78
2023/04/06 05:05:02;;;;;;;51.38;21.48;;;;;;;3.82;100.00;101325.13;4943275;29;20050;-77
2023/04/06 05:07:28;;;;;;;53.47;21.13;;;;;;;3.77;100.00;101324.44;4922388;29;20502;-77
2023/04/06 05:09:54;;;;;;;58.50;21.85;;;;;;;3.86;100.00;101322.22;4926728;29;20043;-76
2023/04/06 05:12:20;;;;;;;51.55;21.58;;;;;;;3.85;100.00;101319.56;4952145;29;20053;-77
2023/04/06 05:14:45;;;;;;;59.30;21.27;;;;;;;3.71;100.00;101290.41;4951149;29;20071;-77
2023/04/06 05:17:14;;;;;;;49.78;21.30;;;;;;;3.82;100.00;101311.59;4951078;29;20043;-77
2023/04/06 05:19:39;;;;;;;47.20;19.63;;;;;;;4.01;100.00;101319.78;4922418;29;20110;-76
2023/04/06 05:22:05;;;;;;;50.45;21.35;;;;;;;3.72;100.00;101316.50;4941866;29;20454;-77
2023/04/06 05:24:30;;;;;;;55.65;20.55;;;;;;;3.86;100.00;101316.81;4929353;29;20102;-77
2023/04/06 05:26:56;;;;;;;47.30;20.13;;;;;;;3.96;100.00;101321.81;4920666;29;20130;-76
2023/04/06 05:29:21;;;;;;;46.72;19.52;;;;;;;4.00;100.00;101318.03;4933707;29;20039;-76
2023/04/06 05:31:47;;;;;;;40.38;18.75;;;;;;;3.92;100.00;101329.22;4912045;29;20035;-77
2023/04/06 05:34:12;;;;;;;47.05;19.92;;;;;;;3.96;100.00;101324.53;4925018;29;20032;-78
2023/04/06 05:36:40;;;;;;;40.80;20.65;;;;;;;4.01;100.00;101317.94;4936309;29;20051;-77
2023/04/06 05:39:05;;;;;;;44.55;19.83;;;;;;;4.04;100.00;101314.25;4922937;29;21060;-78
2023/04/06 05:41:31;;;;;;;42.33;19.48;;;;;;;4.05;100.00;101318.72;4912329;29;20066;-78
2023/04/06 05:43:57;;;;;;;55.00;20.52;;;;;;;4.14;100.00;101320.13;4932593;29;20044;-78
2023/04/06 05:46:22;;;;;;;46.13;19.15;;;;;;;4.09;100.00;101320.34;4896744;29;20082;-79
2023/04/06 05:48:48;;;;;;;46.05;19.83;;;;;;;4.14;100.00;101322.84;4923496;29;20039;-78
2023/04/06 05:51:13;;;;;;;43.67;19.73;;;;;;;4.01;100.00;101307.13;4910202;29;20027;-78
2023/04/06 05:53:39;;;;;;;43.70;19.02;;;;;;;4.12;100.00;101313.91;4896128;29;20054;-78
2023/04/06 05:56:04;;;;;;;49.70;18.20;;;;;;;4.27;100.00;101323.19;4912453;29;20570;-78
2023/04/06 05:58:30;;;;;;;48.38;17.92;;;;;;;4.20;100.00;101318.03;4921552;29;20050;-80
2023/04/06 06:01:00;;;;;;;42.20;19.30;;;;;;;4.37;100.00;101321.78;4915274;29;20400;-77
2023/04/06 06:03:26;;;;;;;51.63;18.83;;;;;;;4.48;100.00;101321.31;4938294;29;20519;-78
2023/04/06 06:05:51;;;;;;;50.45;19.27;;;;;;;4.45;100.00;101316.91;4922145;29;20031;-77
2023/04/06 06:08:17;;;;;;;42.78;18.27;;;;;;;4.54;100.00;101319.19;4938727;29;20058;-77
2023/04/06 06:10:42;;;;;;;41.28;18.48;;;;;;;4.60;100.00;101316.19;4907923;29;20491;-77
2023/04/06 06:13:08;;;;;;;49.10;18.15;;;;;;;4.65;100.00;101312.38;4942486;29;20051;-78
2023/04/06 06:15:34;;;;;;;41.58;18.23;;;;;;;4.54;100.00;101308.34;4932937;29;20476;-80
2023/04/06 06:18:00;;;;;;;46.05;17.33;;;;;;;4.80;100.00;101311.66;4907446;29;20075;-76
2023/04/06 06:20:26;;;;;;;41.85;17.15;;;;;;;4.85;100.00;101306.00;4932037;29;20500;-78
2023/04/06 06:22:52;;;;;;;40.10;18.70;;;;;;;5.10;100.00;101302.97;4927142;29;20439;-78
2023/04/06 06:25:17;;;;;;;38.75;15.73;;;;;;;5.09;100.00;101312.97;4931667;29;20141;-79
2023/04/06 06:27:43;;;;;;;40.40;17.25;;;;;;;5.06;100.00;101309.53;4892737;29;20042;-78
2023/04/06 06:30:08;;;;;;;39.80;17.15;;;;;;;5.20;100.00;101304.28;4939937;29;20038;-77
2023/04/06 06:32:34;;;;;;;46.78;18.63;;;;;;;5.19;100.00;101309.81;4938145;29;20066;-80
2023/04/06 06:35:00;;;;;;;41.45;17.52;;;;;;;5.20;100.00;101307.00;4932403;29;20042;-79
2023/04/06 06:37:27;;;;;;;44.33;17.30;;;;;;;5.20;100.00;101304.28;4910471;29;20035;-78
2023/04/06 06:39:52;;;;;;;43.05;17.90;;;;;;;5.24;100.00;101314.03;4920851;29;20080;-78
2023/04/06 06:42:18;;;;;;;37.47;17.45;;;;;;;5.28;100.00;101303.91;4944104;29;20118;-78
2023/04/06 06:44:43;;;;;;;37.80;16.30;;;;;;;5.26;100.00;101309.44;4905846;29;20042;-79
2023/04/06 06:47:09;;;;;;;42.30;16.08;;;;;;;5.34;100.00;101307.22;4929630;29;20070;-78
2023/04/06 06:49:35;;;;;;;40.03;16.80;;;;;;;5.48;100.00;101309.22;4935528;29;20386;-78
2023/04/06 06:52:01;;;;;;;40.53;16.88;;;;;;;5.48;100.00;101314.66;4904638;29;20043;-78
2023/04/06 06:54:28;;;;;;;43.42;16.58;;;;;;;5.70;100.00;101308.97;4929947;29;20416;-78
2023/04/06 06:56:54;;;;;;;33.95;15.77;;;;;;;5.77;100.00;101282.41;4896857;29;20031;-78
2023/04/06 06:59:20;;;;;;;42.17;16.17;;;;;;;5.80;100.00;101305.81;4926336;29;20407;-80
2023/04/06 07:01:45;;;;;;;34.53;14.52;;;;;;;5.80;100.00;101303.97;4906576;29;20133;-80
2023/04/06 07:04:14;;;;;;;39.45;15.45;;;;;;;5.94;100.00;101311.41;4889834;29;20036;-80
2023/04/06 07:06:40;;;;;;;34.78;15.18;;;;;;;5.86;100.00;101308.22;4889930;29;20040;-80
2023/04/06 07:09:05;;;;;;;35.33;16.05;;;;;;;6.02;100.00;101309.19;4906079;29;20098;-80
2023/04/06 07:11:31;;;;;;;32.67;14.55;;;;;;;6.22;100.00;101309.97;4888718;29;20043;-79
2023/04/06 07:13:56;;;;;;;35.10;15.50;;;;;;;6.05;100.00;101299.97;4926148;29;20039;-79
2023/04/06 07:16:22;;;;;;;37.80;15.02;;;;;;;6.09;100.00;101289.84;4906105;29;20040;-79
2023/04/06 07:18:47;;;;;;;35.55;16.73;;;;;;;6.23;100.00;101309.00;4888390;29;20462;-80
2023/04/06 07:21:13;;;;;;;34.55;16.27;;;;;;;6.09;100.00;101290.72;4936884;29;20043;-79
2023/04/06 07:23:38;;;;;;;40.17;15.48;;;;;;;6.20;100.00;101298.31;4910941;29;20427;-80
2023/04/06 07:26:04;;;;;;;38.55;16.08;;;;;;;6.13;100.00;101288.72;4935645;29;20098;-79
2023/04/06 07:28:30;;;;;;;48.30;16.90;;;;;;;6.27;100.00;101285.25;4920311;29;20065;-80
2023/04/06 07:30:55;;;;;;;35.15;15.02;;;;;;;6.29;100.00;101289.63;4919798;29;20555;-79
2023/04/06 07:33:21;;;;;;;38.20;15.98;;;;;;;6.28;100.00;101281.56;4904436;29;20095;-79
2023/04/06 07:35:46;;;;;;;33.05;15.07;;;;;;;6.37;100.00;101300.97;4903844;29;20042;-79
2023/04/06 07:38:12;;;;;;;38.58;15.43;;;;;;;6.44;100.00;101291.53;4944501;29;20059;-79
2023/04/06 07:40:37;;;;;;;36.47;15.73;;;;;;;6.54;100.00;101296.44;4938814;29;20483;-79
2023/04/06 07:43:03;;;;;;;35.58;15.10;;;;;;;6.42;100.00;101298.88;4923065;29;20047;-79
2023/04/06 07:45:29;;;;;;;36.55;14.95;;;;;;;6.45;100.00;101278.81;4955652;29;20380;-79
2023/04/06 07:47:54;;;;;;;30.42;14.73;;;;;;;6.69;100.00;101286.56;4952576;29;20043;-78
2023/04/06 07:50:20;;;;;;;39.08;15.52;;;;;;;6.87;100.00;101273.75;4907724;29;20039;-80
2023/04/06 07:52:45;;;;;;;31.50;15.35;;;;;;;7.00;100.00;101280.25;4915375;29;20034;-78
2023/04/06 07:55:13;;;;;;;36.67;15.15;;;;;;;7.03;100.00;101290.97;4959657;29;20061;-78
2023/04/06 07:57:39;;;;;;;43.33;14.88;;;;;;;7.13;100.00;101275.88;4926511;29;20600;-78
2023/04/06 08:00:05;;;;;;;36.97;13.13;;;;;;;7.17;100.00;101282.88;4926056;29;20126;-78
2023/04/06 08:02:34;;;;;;;43.22;15.68;;;;;;;7.13;100.00;101292.22;4922800;29;20059;-78
2023/04/06 08:04:59;;;;;;;42.67;16.02;;;;;;;7.24;100.00;101288.84;4934764;29;20041;-78
2023/04/06 08:07:25;;;;;;;37.60;15.55;;;;;;;7.10;100.00;101264.25;4942329;29;20035;-78
2023/04/06 08:09:52;;;;;;;39.70;15.73;;;;;;;7.34;100.00;101279.16;4957683;29;20042;-78
2023/04/06 08:12:17;;;;;;;33.80;13.65;;;;;;;7.30;100.00;101288.50;4941065;29;20491;-78
2023/04/06 08:14:42;;;;;;;32.97;15.23;;;;;;;7.25;100.00;101290.63;4941921;29;20027;-78
2023/04/06 08:17:08;;;;;;;33.75;14.63;;;;;;;7.22;100.00;101279.03;4942098;29;20047;-78
2023/04/06 08:19:33;;;;;;;35.10;14.70;;;;;;;7.48;100.00;101283.81;4909815;29;20039;-78
2023/04/06 08:21:59;;;;;;;40.90;15.50;;;;;;;7.33;100.00;101284.72;4925633;29;20046;-78
2023/04/06 08:24:25;;;;;;;31.95;14.20;;;;;;;7.48;100.00;101286.53;4957532;29;20047;-78
2023/04/06 08:26:51;;;;;;;30.67;14.50;;;;;;;7.68;100.00;101285.34;4942166;29;20035;-78
2023/04/06 08:29:16;;;;;;;38.40;15.50;;;;;;;7.55;100.00;101287.06;4941631;29;20050;-79
2023/04/06 08:31:42;;;;;;;36.92;14.15;;;;;;;7.48;100.00;101285.69;4942064;29;20035;-78
2023/04/06 08:34:07;;;;;;;30.73;14.27;;;;;;;7.55;100.00;101281.59;4940210;29;20062;-78
2023/04/06 08:36:33;;;;;;;35.25;15.40;;;;;;;7.48;100.00;101281.09;4918946;29;20187;-78
2023/04/06 08:39:00;;;;;;;31.55;14.45;;;;;;;7.59;100.00;101290.47;4938461;29;20563;-78
2023/04/06 08:41:27;;;;;;;38.17;14.95;;;;;;;7.52;100.00;101282.66;4939981;29;20395;-78
2023/04/06 08:44:03;;;;;;;30.55;15.27;;;;;;;7.66;100.00;101286.44;4954399;29;20051;-78
2023/04/06 08:46:30;;;;;;;35.95;16.17;;;;;;;7.80;100.00;101281.00;4956795;29;20042;-78
2023/04/06 08:48:57;;;;;;;41.33;16.60;;;;;;;7.80;100.00;101283.72;4956755;29;20042;-78
2023/04/06 08:51:27;;;;;;;37.78;15.10;;;;;;;7.93;100.00;101283.84;4957413;29;20130;-78
2023/04/06 08:53:55;;;;;;;38.08;16.30;;;;;;;8.02;100.00;101287.88;4954460;28;20115;-78
2023/04/06 08:56:29;;;;;;;45.88;17.67;;;;;;;8.24;100.00;101292.88;4941884;29;20126;-78
2023/04/06 08:58:56;;;;;;;41.28;15.85;;;;;;;8.32;100.00;101281.50;4941419;29;20168;-79
2023/04/06 09:01:27;;;;;;;39.80;16.13;;;;;;;8.32;100.00;101287.81;4923034;29;20051;-78
2023/04/06 09:03:57;;;;;;;52.35;16.73;;;;;;;8.29;100.00;101291.59;4909756;29;20444;-78
2023/04/06 09:06:22;;;;;;;37.58;15.20;;;;;;;8.43;100.00;101290.78;4922255;29;20034;-78
2023/04/06 09:08:48;;;;;;;47.90;17.30;;;;;;;8.62;98.04;101285.03;4922660;29;20491;-78
2023/04/06 09:11:14;;;;;;;43.13;15.95;;;;;;;8.54;100.00;101281.03;4947652;29;20040;-78
2023/04/06 09:13:48;;;;;;;44.33;16.30;;;;;;;8.58;99.03;101293.53;4948990;29;20031;-78
2023/04/06 09:16:14;;;;;;;49.25;17.58;;;;;;;8.59;98.34;101289.78;4941516;29;20050;-78
2023/04/06 09:18:39;;;;;;;41.30;16.83;;;;;;;8.72;99.80;101288.03;4956129;29;20035;-78
2023/04/06 09:21:07;;;;;;;42.70;15.70;;;;;;;8.72;98.46;101295.34;4925637;29;20045;-78
2023/04/06 09:23:33;;;;;;;40.53;16.27;;;;;;;8.92;93.92;101284.03;4921997;29;20036;-78
2023/04/06 09:26:13;;;;;;;62.47;17.08;;;;;;;9.16;93.40;101295.16;4922360;29;20122;-78
2023/04/06 09:28:45;;;;;;;43.38;16.60;;;;;;;8.95;94.61;101297.47;4955572;29;20031;-79
2023/04/06 09:31:10;;;;;;;46.03;16.40;;;;;;;8.89;94.87;101286.09;4925365;29;20169;-79
2023/04/06 09:33:41;;;;;;;37.45;16.48;;;;;;;8.94;96.48;101289.38;4921804;29;20036;-79
2023/04/06 09:36:11;;;;;;;42.47;17.05;;;;;;;8.90;98.04;101296.88;4921667;29;20043;-78
2023/04/06 09:38:57;;;;;;;44.17;17.55;;;;;;;9.12;95.78;101290.91;4922252;29;20039;-78
2023/04/06 09:41:27;;;;;;;43.58;16.55;;;;;;;9.07;97.15;101289.44;4921732;29;20480;-79
2023/04/06 09:44:03;;;;;;;46.95;17.70;;;;;;;9.12;97.36;101284.56;4942412;29;20097;-79
2023/04/06 09:46:33;;;;;;;37.80;17.92;;;;;;;9.19;96.41;101284.03;4955764;29;20086;-79
2023/04/06 09:49:01;;;;;;;38.70;16.98;;;;;;;9.23;97.70;101284.75;4924476;29;20046;-79
2023/04/06 09:51:34;;;;;;;39.85;17.48;;;;;;;9.35;95.01;101289.38;4940488;29;20098;-79
2023/04/06 09:54:02;;;;;;;37.28;17.38;;;;;;;9.24;96.54;101280.13;4955880;29;20384;-79
2023/04/06 09:56:33;;;;;;;35.85;16.23;;;;;;;9.31;94.88;101296.03;4954150;28;20039;-78
2023/04/06 09:59:05;;;;;;;44.63;17.40;;;;;;;9.33;97.29;101277.66;4946075;29;20043;-78
2023/04/06 10:01:33;;;;;;;45.70;17.00;;;;;;;9.38;98.54;101267.31;4937009;29;20058;-78
2023/04/06 10:03:58;;;;;;;44.13;18.38;;;;;;;9.66;98.38;101281.81;4921681;29;20082;-78
2023/04/06 10:06:28;;;;;;;42.13;16.67;;;;;;;9.77;95.56;101281.06;4937658;29;20118;-79
2023/04/06 10:08:56;;;;;;;38.65;17.30;;;;;;;9.94;95.96;101291.72;4923234;29;20027;-79
2023/04/06 10:11:22;;;;;;;34.38;18.08;;;;;;;10.03;92.84;101278.38;4936339;29;20028;-79
2023/04/06 10:13:48;;;;;;;46.25;18.80;;;;;;;10.38;92.02;101296.94;4939052;29;20035;-79
2023/04/06 10:16:15;;;;;;;38.95;16.92;;;;;;;10.29;93.93;101287.50;4940311;29;20031;-79
2023/04/06 10:18:46;;;;;;;33.65;16.23;;;;;;;10.34;93.13;101288.06;4955813;28;20046;-79
2023/04/06 10:21:16;;;;;;;37.50;15.68;;;;;;;10.51;93.81;101289.63;4957105;29;20435;-79
2023/04/06 10:23:46;;;;;;;38.85;15.70;;;;;;;10.71;88.04;101290.91;4927769;29;20122;-79
2023/04/06 10:26:17;;;;;;;40.05;15.20;;;;;;;10.86;87.21;101291.66;4939820;29;20398;-79
2023/04/06 10:28:47;;;;;;;39.60;14.63;;;;;;;11.02;83.23;101288.66;4936038;29;20090;-79
2023/04/06 10:31:13;;;;;;;35.90;15.07;;;;;;;10.71;85.43;101295.50;4936472;29;20510;-79
2023/04/06 10:33:40;;;;;;;35.40;14.20;;;;;;;10.65;86.52;101294.94;4936934;29;20119;-79
2023/04/06 10:36:23;;;;;;;32.67;13.35;;;;;;;10.55;88.63;101293.00;4952437;29;20040;-79
2023/04/06 10:38:58;;;;;;;33.58;11.93;;;;;;;10.35;91.42;101297.19;4936407;29;20031;-79
2023/04/06 10:41:25;;;;;;;28.23;11.55;;;;;;;10.37;90.72;101298.81;4937805;29;20439;-79
2023/04/06 10:43:57;;;;;;;34.17;13.40;;;;;;;10.67;92.90;101303.06;4904864;29;20063;-79
2023/04/06 10:46:28;;;;;;;28.13;12.53;;;;;;;10.46;91.83;101295.41;4922679;29;20039;-79
2023/04/06 10:48:54;;;;;;;30.90;13.15;;;;;;;10.31;93.17;101296.47;4938710;29;20658;-79
2023/04/06 10:51:26;;;;;;;29.08;12.52;;;;;;;10.13;97.39;101304.13;4953764;29;20033;-79
2023/04/06 10:53:53;;;;;;;27.25;10.45;;;;;;;10.11;99.26;101306.94;4935882;29;20024;-79
2023/04/06 10:56:22;;;;;;;26.73;10.50;;;;;;;9.99;100.00;101296.00;4920285;29;20041;-79
2023/04/06 10:58:50;;;;;;;26.42;11.15;;;;;;;10.03;100.00;101295.66;4904557;29;20036;-79
2023/04/06 11:01:17;;;;;;;22.05;10.32;;;;;;;9.88;100.00;101291.28;4936930;29;20047;-79
2023/04/06 11:03:54;;;;;;;25.95;10.55;;;;;;;9.98;100.00;101292.38;4920146;29;20036;-79
2023/04/06 11:06:20;;;;;;;31.23;10.85;;;;;;;10.04;100.00;101300.16;4921218;29;20032;-79